createdAt,value
2017-09-15T00:01:11.677Z,99.90
2017-09-15T00:03:39.244Z,99.90
2017-09-15T00:06:06.837Z,99.90
2017-09-15T00:08:34.418Z,99.90
2017-09-15T00:11:01.959Z,99.90
2017-09-15T00:13:29.500Z,99.90
2017-09-15T00:15:59.850Z,99.90
2017-09-15T00:18:27.462Z,99.90
2017-09-15T00:20:55.002Z,99.90
2017-09-15T00:23:22.563Z,99.90
2017-09-15T00:25:58.836Z,99.90
2017-09-15T00:28:26.394Z,99.90
2017-09-15T00:30:54.737Z,99.90
2017-09-15T00:33:22.299Z,99.90
2017-09-15T00:35:50.842Z,99.90
2017-09-15T00:38:18.415Z,99.90
2017-09-15T00:40:45.955Z,99.90
2017-09-15T00:43:14.338Z,99.90
2017-09-15T00:45:41.894Z,99.90
2017-09-15T00:48:10.222Z,99.90
2017-09-15T00:50:37.763Z,99.90
2017-09-15T00:53:05.309Z,99.90
2017-09-15T00:55:32.848Z,99.90
2017-09-15T00:58:00.397Z,99.90
2017-09-15T01:00:27.908Z,99.90
2017-09-15T01:02:55.484Z,99.90
2017-09-15T01:05:25.027Z,99.90
2017-09-15T01:07:52.606Z,99.90
2017-09-15T01:10:20.117Z,99.90
2017-09-15T01:12:47.663Z,99.90
2017-09-15T01:15:15.182Z,99.90
2017-09-15T01:17:42.740Z,99.90
2017-09-15T01:20:10.301Z,99.90
2017-09-15T01:22:37.855Z,99.90
2017-09-15T01:25:05.411Z,99.90
2017-09-15T01:27:32.952Z,99.90
2017-09-15T01:30:01.265Z,99.90
2017-09-15T01:32:28.810Z,99.90
2017-09-15T01:34:57.288Z,99.90
2017-09-15T01:37:24.839Z,99.90
2017-09-15T01:39:53.134Z,99.90
2017-09-15T01:42:20.694Z,99.90
2017-09-15T01:44:48.232Z,99.90
2017-09-15T01:47:16.564Z,99.90
2017-09-15T01:49:44.118Z,99.90
2017-09-15T01:52:11.674Z,99.90
2017-09-15T01:54:39.201Z,99.90
2017-09-15T01:57:06.755Z,99.90
2017-09-15T01:59:34.333Z,99.90
2017-09-15T02:02:01.895Z,99.90
2017-09-15T02:04:29.447Z,99.90
2017-09-15T02:06:57.006Z,99.90
2017-09-15T02:09:24.587Z,99.90
2017-09-15T02:11:52.123Z,99.90
2017-09-15T02:14:19.711Z,99.90
2017-09-15T02:16:47.232Z,99.90
2017-09-15T02:19:14.795Z,99.90
2017-09-15T02:21:42.345Z,99.90
2017-09-15T02:24:09.901Z,99.90
2017-09-15T02:35:28.749Z,99.90
2017-09-15T02:37:56.286Z,99.90
2017-09-15T02:40:23.824Z,99.90
2017-09-15T02:42:52.136Z,99.90
2017-09-15T02:45:23.254Z,99.90
2017-09-15T02:47:50.807Z,99.90
2017-09-15T02:50:18.357Z,99.90
2017-09-15T02:52:46.637Z,99.90
2017-09-15T02:55:15.986Z,99.90
2017-09-15T02:57:43.523Z,99.90
2017-09-15T03:00:11.083Z,99.90
2017-09-15T03:02:38.601Z,99.90
2017-09-15T03:05:06.162Z,99.90
2017-09-15T03:07:33.718Z,99.90
2017-09-15T03:10:01.267Z,99.90
2017-09-15T03:12:28.790Z,99.90
2017-09-15T03:14:56.311Z,99.90
2017-09-15T03:17:23.838Z,99.90
2017-09-15T03:19:51.365Z,99.90
2017-09-15T03:22:18.895Z,99.90
2017-09-15T03:24:46.433Z,99.90
2017-09-15T03:27:14.748Z,99.90
2017-09-15T03:29:42.309Z,99.90
2017-09-15T03:32:09.805Z,99.90
2017-09-15T03:34:37.373Z,99.90
2017-09-15T03:37:05.661Z,99.90
2017-09-15T03:39:33.189Z,99.90
2017-09-15T03:42:00.713Z,99.90
2017-09-15T03:44:28.244Z,99.90
2017-09-15T03:46:56.513Z,99.90
2017-09-15T03:49:24.817Z,99.90
2017-09-15T03:51:52.334Z,99.90
2017-09-15T03:54:19.857Z,99.90
2017-09-15T03:56:47.361Z,99.90
2017-09-15T03:59:14.917Z,99.90
2017-09-15T04:01:42.423Z,99.90
2017-09-15T04:04:09.961Z,99.90
2017-09-15T04:06:37.460Z,99.90
2017-09-15T04:09:04.998Z,99.90
2017-09-15T04:11:32.513Z,99.90
2017-09-15T04:14:00.033Z,99.90
2017-09-15T04:16:27.544Z,99.90
2017-09-15T04:18:55.085Z,99.90
2017-09-15T04:21:23.391Z,99.90
2017-09-15T04:23:50.919Z,99.90
2017-09-15T04:26:19.193Z,99.90
2017-09-15T04:28:46.737Z,99.90
2017-09-15T04:31:14.261Z,99.90
2017-09-15T04:33:41.789Z,99.90
2017-09-15T04:36:09.297Z,99.90
2017-09-15T04:38:36.835Z,99.90
2017-09-15T04:41:04.345Z,99.90
2017-09-15T04:43:31.885Z,99.90
2017-09-15T04:46:04.378Z,99.90
2017-09-15T04:48:31.934Z,99.90
2017-09-15T04:51:00.235Z,99.90
2017-09-15T04:53:34.370Z,99.90
2017-09-15T04:56:01.994Z,99.90
2017-09-15T04:58:33.313Z,99.90
2017-09-15T05:01:00.816Z,99.90
2017-09-15T05:03:28.343Z,99.90
2017-09-15T05:05:56.628Z,99.90
2017-09-15T05:08:24.933Z,99.90
2017-09-15T05:10:52.429Z,99.90
2017-09-15T05:13:19.949Z,99.90
2017-09-15T05:15:47.449Z,99.90
2017-09-15T05:41:39.869Z,99.90
2017-09-15T05:44:07.616Z,99.90
2017-09-15T05:46:35.728Z,99.90
2017-09-15T05:49:03.347Z,99.90
2017-09-15T05:51:31.647Z,99.90
2017-09-15T05:53:59.169Z,99.90
2017-09-15T05:56:27.021Z,99.90
2017-09-15T05:58:54.536Z,99.90
2017-09-15T06:01:22.042Z,99.90
2017-09-15T06:03:49.565Z,99.90
2017-09-15T06:06:17.073Z,99.90
2017-09-15T06:08:44.594Z,99.90
2017-09-15T06:11:12.087Z,99.90
2017-09-15T06:13:39.608Z,99.90
2017-09-15T06:16:07.141Z,99.90
2017-09-15T06:18:34.700Z,99.90
2017-09-15T06:21:02.217Z,99.90
2017-09-15T06:23:29.724Z,99.90
2017-09-15T06:25:57.273Z,99.90
2017-09-15T06:28:24.813Z,99.90
2017-09-15T06:30:53.088Z,99.90
2017-09-15T06:33:20.607Z,99.90
2017-09-15T06:35:48.128Z,99.90
2017-09-15T06:38:15.661Z,99.90
2017-09-15T06:40:43.933Z,99.90
2017-09-15T06:43:11.455Z,99.90
2017-09-15T06:45:38.962Z,99.90
2017-09-15T06:48:07.257Z,99.90
2017-09-15T06:50:34.785Z,99.90
2017-09-15T06:53:02.409Z,99.90
2017-09-15T06:55:29.915Z,99.90
2017-09-15T06:57:57.441Z,99.90
2017-09-15T07:00:24.964Z,99.90
2017-09-15T07:02:52.493Z,99.90
2017-09-15T07:05:20.761Z,99.90
2017-09-15T07:07:49.068Z,99.90
2017-09-15T07:10:16.572Z,99.90
2017-09-15T07:12:44.088Z,99.90
2017-09-15T07:15:11.604Z,99.90
2017-09-15T07:17:39.100Z,99.90
2017-09-15T07:20:06.624Z,99.90
2017-09-15T07:22:34.137Z,99.90
2017-09-15T07:25:01.668Z,99.90
2017-09-15T07:27:29.181Z,99.90
2017-09-15T07:29:56.701Z,99.90
2017-09-15T07:32:24.227Z,99.90
2017-09-15T07:34:52.521Z,99.90
2017-09-15T07:37:20.045Z,99.90
2017-09-15T07:39:47.569Z,99.90
2017-09-15T07:42:15.087Z,99.90
2017-09-15T07:44:42.605Z,99.90
2017-09-15T07:47:10.129Z,99.90
2017-09-15T07:49:37.659Z,99.90
2017-09-15T07:52:05.172Z,99.80
2017-09-15T07:54:32.696Z,99.90
2017-09-15T07:57:00.229Z,99.60
2017-09-15T07:59:27.748Z,99.70
2017-09-15T08:01:55.307Z,99.70
2017-09-15T08:04:22.828Z,99.40
2017-09-15T08:06:50.346Z,99.90
2017-09-15T08:09:17.929Z,99.90
2017-09-15T08:11:45.456Z,99.80
2017-09-15T08:14:12.976Z,99.50
2017-09-15T08:16:40.472Z,98.80
2017-09-15T08:19:08.002Z,99.80
2017-09-15T08:21:35.525Z,99.80
2017-09-15T08:24:03.052Z,99.30
2017-09-15T08:26:31.347Z,98.80
2017-09-15T08:28:59.641Z,99.30
2017-09-15T08:31:27.160Z,99.20
2017-09-15T08:33:54.701Z,99.20
2017-09-15T08:36:22.208Z,99.10
2017-09-15T08:38:49.728Z,98.90
2017-09-15T08:41:17.233Z,99.00
2017-09-15T08:43:44.760Z,98.40
2017-09-15T08:46:12.289Z,97.70
2017-09-15T08:48:39.813Z,97.00
2017-09-15T08:51:07.329Z,97.20
2017-09-15T08:53:34.860Z,97.20
2017-09-15T08:56:02.352Z,97.20
2017-09-15T08:58:30.645Z,97.10
2017-09-15T09:00:58.913Z,96.90
2017-09-15T09:03:27.217Z,97.80
2017-09-15T09:05:54.733Z,97.70
2017-09-15T09:08:22.265Z,96.80
2017-09-15T09:10:49.773Z,97.60
2017-09-15T09:13:17.284Z,96.90
2017-09-15T09:15:44.947Z,97.40
2017-09-15T09:18:12.897Z,97.30
2017-09-15T09:20:40.397Z,97.00
2017-09-15T09:23:08.845Z,97.10
2017-09-15T09:25:36.359Z,96.70
2017-09-15T09:28:03.896Z,95.30
2017-09-15T09:30:31.397Z,95.20
2017-09-15T09:32:58.905Z,95.30
2017-09-15T09:35:26.413Z,95.20
2017-09-15T09:37:53.928Z,94.60
2017-09-15T09:40:21.442Z,94.30
2017-09-15T09:42:48.988Z,94.50
2017-09-15T09:45:16.488Z,94.60
2017-09-15T09:47:44.004Z,94.90
2017-09-15T09:50:11.504Z,94.70
2017-09-15T09:52:39.033Z,94.50
2017-09-15T09:55:06.557Z,94.80
2017-09-15T09:57:34.082Z,93.90
2017-09-15T10:00:01.589Z,93.30
2017-09-15T10:02:29.101Z,93.30
2017-09-15T10:04:56.621Z,92.70
2017-09-15T10:07:24.184Z,92.80
2017-09-15T10:09:51.705Z,91.60
2017-09-15T10:12:19.256Z,91.80
2017-09-15T10:14:47.606Z,93.30
2017-09-15T10:17:15.129Z,93.30
2017-09-15T10:19:43.176Z,94.00
2017-09-15T10:22:10.717Z,93.70
2017-09-15T10:24:38.986Z,93.90
2017-09-15T10:27:07.284Z,93.50
2017-09-15T10:29:34.802Z,93.50
2017-09-15T10:32:02.335Z,93.40
2017-09-15T10:34:29.852Z,94.10
2017-09-15T10:36:58.162Z,94.70
2017-09-15T10:39:25.684Z,94.60
2017-09-15T10:41:53.988Z,93.30
2017-09-15T10:44:21.574Z,93.20
2017-09-15T10:46:49.105Z,89.10
2017-09-15T10:49:16.605Z,88.50
2017-09-15T10:51:44.142Z,87.90
2017-09-15T10:54:11.678Z,89.00
2017-09-15T10:56:39.195Z,86.10
2017-09-15T10:59:12.408Z,85.70
2017-09-15T11:01:40.001Z,84.90
2017-09-15T11:04:08.436Z,86.00
2017-09-15T11:06:36.715Z,86.90
2017-09-15T11:09:05.022Z,89.50
2017-09-15T11:11:32.541Z,89.20
2017-09-15T11:14:00.878Z,87.10
2017-09-15T11:16:28.393Z,86.90
2017-09-15T11:18:55.921Z,88.60
2017-09-15T11:21:23.425Z,89.90
2017-09-15T11:23:51.101Z,85.80
2017-09-15T11:26:18.641Z,84.60
2017-09-15T11:28:46.191Z,82.80
2017-09-15T11:31:14.465Z,86.20
2017-09-15T11:33:52.334Z,86.10
2017-09-15T11:36:19.860Z,85.50
2017-09-15T11:38:47.392Z,84.90
2017-09-15T11:41:14.917Z,84.90
2017-09-15T11:43:50.043Z,83.10
2017-09-15T11:46:18.437Z,83.00
2017-09-15T11:48:45.978Z,85.30
2017-09-15T11:51:13.517Z,85.00
2017-09-15T11:53:43.053Z,82.60
2017-09-15T11:56:10.560Z,82.10
2017-09-15T11:58:38.101Z,81.80
2017-09-15T12:01:05.622Z,79.00
2017-09-15T12:03:33.325Z,80.20
2017-09-15T12:06:00.832Z,79.00
2017-09-15T12:08:28.358Z,80.00
2017-09-15T12:10:55.899Z,79.60
2017-09-15T12:13:23.420Z,76.90
2017-09-15T12:15:50.935Z,75.90
2017-09-15T12:18:18.466Z,75.50
2017-09-15T12:20:46.757Z,75.40
2017-09-15T12:23:14.302Z,75.40
2017-09-15T12:25:41.835Z,76.70
2017-09-15T12:28:10.145Z,76.20
2017-09-15T12:30:37.653Z,76.10
2017-09-15T12:33:05.191Z,76.10
2017-09-15T12:35:32.697Z,74.80
2017-09-15T12:38:01.005Z,85.00
2017-09-15T12:40:28.583Z,85.60
2017-09-15T12:42:56.163Z,83.70
2017-09-15T12:45:23.681Z,85.70
2017-09-15T12:47:51.230Z,84.50
2017-09-15T12:50:18.793Z,84.50
2017-09-15T12:52:46.334Z,88.10
2017-09-15T12:55:13.844Z,83.60
2017-09-15T12:57:41.413Z,85.10
2017-09-15T13:00:08.925Z,84.40
2017-09-15T13:02:36.462Z,81.20
2017-09-15T13:05:04.745Z,77.40
2017-09-15T13:07:32.298Z,77.30
2017-09-15T13:09:59.822Z,80.50
2017-09-15T13:12:27.362Z,79.50
2017-09-15T13:14:54.874Z,77.60
2017-09-15T13:17:23.173Z,79.00
2017-09-15T13:19:50.728Z,78.90
2017-09-15T13:22:18.293Z,78.80
2017-09-15T13:24:45.867Z,79.40
2017-09-15T13:27:13.398Z,78.70
2017-09-15T13:29:40.915Z,77.30
2017-09-15T13:32:08.454Z,77.80
2017-09-15T13:34:35.981Z,76.50
2017-09-15T13:37:03.526Z,79.90
2017-09-15T13:39:31.045Z,80.80
2017-09-15T13:41:58.579Z,81.00
2017-09-15T13:44:26.087Z,74.10
2017-09-15T13:46:54.395Z,71.90
2017-09-15T13:49:21.923Z,71.60
2017-09-15T13:51:50.206Z,76.00
2017-09-15T13:54:18.485Z,74.80
2017-09-15T13:56:46.782Z,75.30
2017-09-15T13:59:14.293Z,75.10
2017-09-15T14:01:41.816Z,76.60
2017-09-15T14:04:09.316Z,78.30
2017-09-15T14:06:36.838Z,78.80
2017-09-15T14:09:04.385Z,77.60
2017-09-15T14:11:31.929Z,78.50
2017-09-15T14:13:59.441Z,81.00
2017-09-15T14:16:26.968Z,78.60
2017-09-15T14:18:54.528Z,76.60
2017-09-15T14:21:22.051Z,78.90
2017-09-15T14:23:50.360Z,76.60
2017-09-15T14:26:17.925Z,76.50
2017-09-15T14:28:45.442Z,78.20
2017-09-15T14:31:13.744Z,83.80
2017-09-15T14:33:41.269Z,83.80
2017-09-15T14:36:09.562Z,87.10
2017-09-15T14:38:37.085Z,86.90
2017-09-15T14:41:04.610Z,87.80
2017-09-15T14:43:32.161Z,88.20
2017-09-15T14:46:00.616Z,88.50
2017-09-15T14:48:28.125Z,87.60
2017-09-15T14:50:55.643Z,87.60
2017-09-15T14:53:23.145Z,87.70
2017-09-15T14:55:50.685Z,88.50
2017-09-15T14:58:18.227Z,89.30
2017-09-15T15:00:45.758Z,89.70
2017-09-15T15:03:13.279Z,90.30
2017-09-15T15:05:40.815Z,90.10
2017-09-15T15:08:08.325Z,88.60
2017-09-15T15:10:36.621Z,89.80
2017-09-15T15:13:04.153Z,89.70
2017-09-15T15:15:32.442Z,90.10
2017-09-15T15:18:00.741Z,90.10
2017-09-15T15:20:28.277Z,90.10
2017-09-15T15:22:56.588Z,90.20
2017-09-15T15:25:24.106Z,90.10
2017-09-15T15:27:52.409Z,90.80
2017-09-15T15:30:19.917Z,90.80
2017-09-15T15:32:47.493Z,91.10
2017-09-15T15:35:15.014Z,90.80
2017-09-15T15:37:42.628Z,91.40
2017-09-15T15:40:10.159Z,90.70
2017-09-15T15:42:37.690Z,90.90
2017-09-15T15:45:05.193Z,90.80
2017-09-15T15:47:33.498Z,91.30
2017-09-15T15:50:01.009Z,91.30
2017-09-15T15:52:28.546Z,91.60
2017-09-15T15:54:56.050Z,91.50
2017-09-15T15:57:24.565Z,91.80
2017-09-15T15:59:52.075Z,91.70
2017-09-15T16:02:19.592Z,92.10
2017-09-15T16:04:47.111Z,92.40
2017-09-15T16:07:14.649Z,91.40
2017-09-15T16:09:42.186Z,91.80
2017-09-15T16:12:09.819Z,91.90
2017-09-15T16:14:37.356Z,92.00
2017-09-15T16:17:04.990Z,91.90
2017-09-15T16:19:33.289Z,92.40
2017-09-15T16:22:00.818Z,92.40
2017-09-15T16:24:28.333Z,92.60
2017-09-15T16:26:55.877Z,93.10
2017-09-15T16:29:23.425Z,92.60
2017-09-15T16:31:50.970Z,92.10
2017-09-15T16:34:18.526Z,92.20
2017-09-15T16:36:46.863Z,92.90
2017-09-15T16:39:19.923Z,92.90
2017-09-15T16:41:53.090Z,93.50
2017-09-15T16:44:26.358Z,93.70
2017-09-15T16:47:00.252Z,93.50
2017-09-15T16:49:30.166Z,93.50
2017-09-15T16:51:57.710Z,93.80
2017-09-15T16:54:25.270Z,94.70
2017-09-15T16:56:52.866Z,94.60
2017-09-15T16:59:21.157Z,95.30
2017-09-15T17:01:49.468Z,95.30
2017-09-15T17:04:17.022Z,95.30
2017-09-15T17:06:44.795Z,95.40
2017-09-15T17:09:12.427Z,93.60
2017-09-15T17:11:39.991Z,95.50
2017-09-15T17:14:07.526Z,95.70
2017-09-15T17:16:35.839Z,96.80
2017-09-15T17:19:03.381Z,96.80
2017-09-15T17:21:30.939Z,97.60
2017-09-15T17:23:58.478Z,98.00
2017-09-15T17:26:26.815Z,98.70
2017-09-15T17:28:54.368Z,98.70
2017-09-15T17:31:22.003Z,99.20
2017-09-15T17:33:52.912Z,99.30
2017-09-15T17:36:20.479Z,99.50
2017-09-15T17:38:47.999Z,99.80
2017-09-15T17:41:15.551Z,99.90
2017-09-15T17:43:44.058Z,99.90
2017-09-15T17:46:11.628Z,99.90
2017-09-15T17:48:39.937Z,99.90
2017-09-15T17:51:07.702Z,99.90
2017-09-15T17:53:39.223Z,99.90
2017-09-15T17:56:06.933Z,99.90
2017-09-15T17:58:34.532Z,99.90
2017-09-15T18:01:02.116Z,99.90
2017-09-15T18:03:29.710Z,99.90
2017-09-15T18:05:57.316Z,99.90
2017-09-15T18:08:24.889Z,99.90
2017-09-15T18:10:52.484Z,99.90
2017-09-15T18:13:21.042Z,99.90
2017-09-15T18:16:01.161Z,99.90
2017-09-15T18:18:42.924Z,99.90
2017-09-15T18:21:12.235Z,99.90
2017-09-15T18:23:41.985Z,99.90
2017-09-15T18:26:09.688Z,99.90
2017-09-15T18:28:37.306Z,99.90
2017-09-15T18:31:04.928Z,99.90
2017-09-15T18:33:32.522Z,99.90
2017-09-15T18:36:00.199Z,99.90
2017-09-15T18:38:27.789Z,99.90
2017-09-15T18:40:55.394Z,99.90
2017-09-15T18:43:23.732Z,99.90
2017-09-15T18:45:52.207Z,99.90
2017-09-15T18:48:19.812Z,99.90
2017-09-15T18:50:47.427Z,99.90
2017-09-15T18:53:15.786Z,99.90
2017-09-15T18:55:44.213Z,99.90
2017-09-15T18:58:11.753Z,99.90
2017-09-15T19:00:40.135Z,99.90
2017-09-15T19:03:07.691Z,99.90
2017-09-15T19:05:35.242Z,99.90
2017-09-15T19:08:03.573Z,99.90
2017-09-15T19:10:31.158Z,99.90
2017-09-15T19:12:58.702Z,99.90
2017-09-15T19:15:26.239Z,99.90
2017-09-15T19:17:53.761Z,99.90
2017-09-15T19:20:22.105Z,99.90
2017-09-15T19:22:49.646Z,99.90
2017-09-15T19:25:17.174Z,99.90
2017-09-15T19:27:44.695Z,99.90
2017-09-15T19:30:12.249Z,99.90
2017-09-15T19:32:39.778Z,99.90
2017-09-15T19:35:07.346Z,99.90
2017-09-15T19:37:34.897Z,99.90
2017-09-15T19:40:02.464Z,99.90
2017-09-15T19:42:30.019Z,99.90
2017-09-15T19:44:57.585Z,99.90
2017-09-15T19:47:25.110Z,99.90
2017-09-15T19:49:52.642Z,99.90
2017-09-15T19:52:20.933Z,99.90
2017-09-15T19:54:48.471Z,99.90
2017-09-15T19:57:16.763Z,99.90
2017-09-15T19:59:44.306Z,99.90
2017-09-15T20:02:11.855Z,99.90
2017-09-15T20:04:40.098Z,99.90
2017-09-15T20:07:07.651Z,99.90
2017-09-15T20:09:35.170Z,99.90
2017-09-15T20:12:07.154Z,99.90
2017-09-15T20:14:34.670Z,99.90
2017-09-15T20:17:02.974Z,99.90
2017-09-15T20:19:30.488Z,99.90
2017-09-15T20:21:58.018Z,99.90
2017-09-15T20:24:25.663Z,99.90
2017-09-15T20:26:53.383Z,99.90
2017-09-15T20:29:25.501Z,99.90
2017-09-15T20:31:53.072Z,99.90
2017-09-15T20:34:21.673Z,99.90
2017-09-15T20:36:50.104Z,99.90
2017-09-15T20:39:17.653Z,99.90
2017-09-15T20:41:45.809Z,99.90
2017-09-15T20:44:14.250Z,99.90
2017-09-15T20:46:42.741Z,99.90
2017-09-15T20:49:10.365Z,99.90
2017-09-15T20:51:38.072Z,99.90
2017-09-15T20:54:06.469Z,99.90
2017-09-15T20:56:34.880Z,99.90
2017-09-15T21:03:36.349Z,99.90
2017-09-15T21:06:03.931Z,99.90
2017-09-15T21:08:31.481Z,99.90
2017-09-15T21:10:59.057Z,99.90
2017-09-15T21:13:26.589Z,99.90
2017-09-15T21:15:54.202Z,99.90
2017-09-15T21:18:21.755Z,99.90
2017-09-15T21:20:49.340Z,99.90
2017-09-15T21:23:16.872Z,99.90
2017-09-15T21:25:44.451Z,99.90
2017-09-15T21:28:11.982Z,99.90
2017-09-15T21:30:39.543Z,99.90
2017-09-15T21:33:07.098Z,99.90
2017-09-15T21:35:34.724Z,99.90
2017-09-15T21:38:02.308Z,99.90
2017-09-15T21:40:29.866Z,99.90
2017-09-15T21:42:58.172Z,99.90
2017-09-15T21:45:25.876Z,99.90
2017-09-15T21:47:53.431Z,99.90
2017-09-15T21:50:21.774Z,99.90
2017-09-15T21:52:49.385Z,99.90
2017-09-15T21:55:16.996Z,99.90
2017-09-15T21:57:44.545Z,99.90
2017-09-15T22:00:12.131Z,99.90
2017-09-15T22:02:40.470Z,99.90
2017-09-15T22:05:08.092Z,99.90
2017-09-15T22:07:35.906Z,99.90
2017-09-15T22:10:03.539Z,99.90
2017-09-15T22:12:31.109Z,99.90
2017-09-15T22:14:58.688Z,99.90
2017-09-15T22:17:26.281Z,99.90
2017-09-15T22:19:53.909Z,99.90
2017-09-15T22:22:23.817Z,99.90
2017-09-15T22:24:51.385Z,99.90
2017-09-15T22:27:18.924Z,99.90
2017-09-15T22:29:46.524Z,99.90
2017-09-15T22:32:18.434Z,99.90
2017-09-15T22:34:46.003Z,99.90
2017-09-15T22:37:13.547Z,99.90
2017-09-15T22:39:41.118Z,99.90
2017-09-15T22:42:08.704Z,99.90
2017-09-15T22:44:36.265Z,99.90
2017-09-15T22:47:03.793Z,99.90
2017-09-15T22:49:31.358Z,99.90
2017-09-15T22:51:58.881Z,99.90
2017-09-15T22:54:31.461Z,99.90
2017-09-15T22:56:59.027Z,99.90
2017-09-15T22:59:26.571Z,99.90
2017-09-15T23:01:54.154Z,99.90
2017-09-15T23:04:21.704Z,99.90
2017-09-15T23:06:49.283Z,99.90
2017-09-15T23:09:16.893Z,99.90
2017-09-15T23:11:44.462Z,99.90
2017-09-15T23:14:12.797Z,99.90
2017-09-15T23:16:40.348Z,99.90
2017-09-15T23:19:07.880Z,99.90
2017-09-15T23:21:35.461Z,99.90
2017-09-15T23:24:03.014Z,99.90
2017-09-15T23:26:30.577Z,99.90
2017-09-15T23:28:58.122Z,99.90
2017-09-15T23:31:25.659Z,99.90
2017-09-15T23:33:56.802Z,99.90
2017-09-15T23:36:25.095Z,99.90
2017-09-15T23:38:52.613Z,99.90
2017-09-15T23:41:20.159Z,99.90
2017-09-15T23:43:47.690Z,99.90
2017-09-15T23:46:15.212Z,99.90
2017-09-15T23:48:43.498Z,99.90
2017-09-15T23:51:11.800Z,99.90
2017-09-15T23:53:39.307Z,99.90
2017-09-15T23:56:06.825Z,99.90
2017-09-15T23:58:34.321Z,99.90
